Persoonlijke zone
Imprimable
Braine-le-Comte, 24/02/2018, BEL - Trail des Bosses
Rapportenlijst > 44.5km - Resultaat
Zoek: Bladzijde: [1]
119 Inputs
 
Klachten worden niet meer geaccepteerd. Resultaten zijn definitief.
Categorie
PosNrNaamLeef.IOCClubWerkelijkeTijdTkmGem.PlaatsNaamGemeente
1.4015BORDET Dominique50FRAOLYMPIQUE GRAND3:35:453:35:524:48 12.511v2hEECKE
2.4110DE CLERCK Jan33BEL3:44:143:44:215:00 12.031sehGENT
3.4022VAN BALLAER Stijn35BELTJAK3:44:573:45:155:01 11.992sehTIELEN
4.4097VANDOORNE Jeroen27BELJEROEN VANDOORN3:50:043:50:105:07 11.733sehLOCHRISTI
5.4021BRUYNEEL Alain55BEL3:54:013:54:035:13 11.542v2hSCHELDEWINDEKE
6.4034DE NAYER Jan37BELBIR3:56:053:56:095:15 11.434sehBRECHT
7.4082GUSTIN Steve38BEL3:59:433:59:485:20 11.265sehHUY
8.4148BRUGGEMAN Pieter-Jan27BELZATOPEK NAMUR4:00:304:00:355:21 11.226sehBELGRADE
9.4075DE BOECK Yannick35BEL4:00:414:00:495:22 11.217sehPUURS
10.4001MANSSENS Christophe32BELBORN TO RUN4:03:114:03:145:25 11.108sehBOUSVAL
11.4141CARON Christophe37BELBORN TO RUN4:05:134:05:165:27 11.019sehHENRIPONT
12.4140DE GROOTE Charles31BEL4:06:514:06:565:30 10.9310sehLASNE
13.4017BARTOSZUK Roman44BELRCB4:07:434:07:485:31 10.901v1hZAVENTEM
14.4116WAGNER Frank48DEUTRAILS.SAZZA.DE4:08:204:08:275:32 10.872v1hAACHEN
15.4109JACQUES Eddy48BEL4:10:294:10:325:35 10.783v1hLA HESTRE
16.4139PLASMANNE Maxime38BEL4:10:464:10:505:35 10.7611sehLASNE
17.4127BYIERS Bruce42GBR4:10:534:11:005:35 10.764v1hBRUXELLES
18.4094ALBERT Mika33BELRUN ATTITUDE4:11:264:11:375:36 10.7312sehLASNE
19.4119DELPIERRE Jean Luc59BELJEAN LUC DELPIE4:16:054:16:095:42 10.543v2hBIESME
20.4118BOUT Kristof42BEL4:16:074:16:295:42 10.535v1hTORHOUT
21.4014MORINEAU Fabrice50FRAMORINEAU4:16:404:16:595:43 10.514v2hWAUTHIER-BRAINE
22.4135HENRY Murillo36ECUSPTWAVRE4:18:114:18:155:45 10.4613sehSART-DAMES-AVELINES
23.800KESTEMONT Bruno58BEL4:18:214:18:255:45 10.455v2h
24.4076ROCHE Benoît29BEL4:18:254:18:285:45 10.4514sehPETIT-ENGHIEN/LETTELINGEN
25.4098DEVOLDRE Dirk58BELGENTRUNNINGTEAM4:18:424:18:505:46 10.436v2hGENT
26.4120SAMAIN Anthony49BELCOACHRUNNING4:19:014:19:055:46 10.426v1h7521 - CHERCQ
27.4104NOUAMANI Mohammed47BELMOHAMMED4:21:054:21:085:49 10.347v1hBRUXELLES
28.4107DE POTTER Christophe46BELRTTO4:21:054:21:125:49 10.348v1hDERGNEAU
29.4143VANHULST Nicolas34BELUSBW4:22:014:22:075:50 10.3015sehBRAINE L L'ALLEUD
30.4018BOURGOIS Mathieu36BELHIKING IN BELGI4:22:314:22:455:51 10.2816sehIXELLES
31.4150DELEYE Steven36BELJOGGINGCLUB WEV4:23:544:24:105:53 10.2217sehSINT-ELOOIS-WINKEL
32.4096VANDEPUTTE Geoffroy49BELTEAM ANNA4:24:404:24:465:54 10.209v1hBONHEIDEN
33.4113SPELMANS Christophe52BELACLO4:25:294:25:345:55 10.177v2hBRAINE-LE-COMTE
34.4149VAN BEVEREN Maarten39NLDVAC4:29:424:29:526:00 10.0018sehGRIMBERGEN
35.4095DEWEZ Geoffroy39BEL4:30:224:30:286:01 9.9819sehBRUXELLES
36.4028VANDERSTRAETEN Mattias33BEL4:30:554:30:576:02 9.9720sehMOLLEM
37.4078DE LA HAYE Olaf42BEL4:32:544:33:106:05 9.8810v1hDUFFEL
38.4007DEMEUNIER Pascal58BEL4:32:534:33:126:05 9.888v2hLUTTRE
39.4134D'AMORE Laurent36FRA4:33:244:33:306:05 9.8721sehLEWARDE
40.4013DUFOUR Dimitri37BELTEMPLEUVE4:35:374:36:476:10 9.7622sehANTOING
41.4130DE DONDER Stephane54BELFACERUNNIG4:36:314:36:576:10 9.759v2hBRUXELLES
42.4144DEMORE Philippe50FRAULTRAMABOULS4:38:354:38:416:12 9.6910v2hUCCLE
43.4092FPLOVIER Barbara46BELTRAKKS4:40:034:40:076:14 9.641v2fHUIZINGEN
44.4124FÉLIX Christophe40BELBORN TO RUN4:43:014:43:056:18 9.5411v1hNIVELLES
45.4129ROTONDA Stephane41BELFACERUNNING4:42:404:43:066:18 9.5412v1hBRUXELLES
46.4137DEKEISTER Emmanuel46FRA4:43:244:43:316:19 9.5213v1hHALLUIN
47.4008BURNIAT Etienne57BEL4:45:114:45:226:21 9.4611v2hUCCLE
48.4012PAESMANS Tom44BELBDS4:46:034:46:166:22 9.4314v1hBEKKEVOORT
49.4074HOTTIAUX Cédric33BELRCABW4:46:384:46:506:23 9.4123sehLOUPOIGNE
50.4089JOZIASSE Giel56NLD4:48:174:48:326:25 9.3612v2hGOES
51.4099LANNOO Michael43BELCABW TRAIL4:54:104:54:226:33 9.1715v1hGOTTIGNIES
52.4032CANIVEZ Denis47FRA4:54:374:54:516:34 9.1616v1hARLEUX EN GOHELLE
53.4101MARCQ Olivier40FRA4:55:394:55:556:35 9.1217v1hLILLE
54.4004DEHOUX Paul49BELTEAM ILW4:55:404:56:046:35 9.1218v1hBETEKOM
55.4036FVERBERGT Christel49BEL4:56:504:57:096:37 9.092v2fOUD-TURNHOUT
56.4106THORNTON Geoffrey39BEL4:57:064:57:126:37 9.0924sehWAUTHIER BRAINE
57.4035SNIJERS Dimitri37BELTEAM TOUGH4:56:534:57:136:37 9.0825sehOLEN
58.4121DUQUESNOY Roger75BEL4:59:404:59:476:40 9.011v3hBRAINE LE COMTE
59.4071DENIS Brieuc48BELBRIEUC DENIS5:00:485:00:586:42 8.9719v1hKAIN
60.4023VAN DEN HEUVEL Michel51BEL5:01:285:01:316:43 8.9513v2hKONINGSHOOIKT
61.4093BURNIAUX François33BEL5:01:525:02:046:43 8.9426sehUCCLE
62.4122LEGRAIN Fabrice45BEL5:03:385:03:436:45 8.8920v1hBRAINE-LE-COMTE
63.4020PEETERS Ivo56BELTJAK5:04:165:04:356:47 8.8614v2hLICHTAART
64.4087TOLBECQ Stephane42BELSWIFT RUNNING C5:04:375:04:466:47 8.8621v1hGOOIK
65.4009JANSSENS Paul58BELSWIFT RUNNING C5:04:405:04:496:47 8.8615v2hORP-JAUCHE
66.4111CEUPPENS Johan56BEL5:04:595:05:076:47 8.8516v2hMUIZEN
67.4081DAHRIB Ahmed39DZAONE TWO THREE5:04:405:05:086:47 8.8527sehVILLENEUVE-LE-ROI
68.4114BERSINI Louis28BEL5:04:545:05:176:48 8.8428sehIXELLES
69.4100THYS Dirk49BELTEAM DEL SOL5:05:115:05:246:48 8.8422v1hVELTEM-BEISEM
70.4016VAN DYK Damien43BELTEMPLEUVE5:05:065:06:186:49 8.8223v1hBLANDAIN
71.4080SPELLANZON Michael47BELFRT BINCHE5:05:575:06:186:49 8.8124v1hBINCHE
72.4128BEVERNAEGIE Chris45BEL5:07:435:07:476:51 8.7725v1hBRASMENIL
73.4136LAMBERT Frédéric33BELSTRONG VIKING5:09:215:09:456:53 8.7229sehBRAINE-LE-COMTE
74.4086FVERLINDEN Nadia49BELRCB5:09:565:10:236:54 8.703v2fBRUXELLES
75.4142MEERSSEMAN Dirk55BELJC DE PINTE5:12:235:12:466:58 8.6317v2hDE PINTE
76.4117TAVERNIER Luc55BELAVKA5:24:215:24:447:13 8.3118v2hAARTSELAAR
77.4088BAYOT Bernard56BELCEPAL5:24:415:24:527:14 8.3119v2hBRUXELLES
78.4003LUQUE Christian51BELFACERUNNING5:25:005:25:287:14 8.3020v2hPONT DE LOUP
79.4126ELAAGBANI Mohamed48BEL5:25:055:25:317:15 8.2926v1hBRUXELLES
80.4079JACQUES Thomas25BEL5:26:325:26:427:16 8.2630sehRHODE SAINT GENÈSE
81.4072JACQUES Julien29BEL5:26:345:26:447:16 8.2631sehWATERLOO
82.4102FTROUX Camille27FRA5:26:275:26:457:16 8.261sefLILLE
83.4002GOOSSENS Tom36BELNON5:26:415:27:007:16 8.2632sehROOSDAAL
84.4131CATTEEUW Michael39BELFACRUNNING5:27:405:28:067:18 8.2333sehZELLIK
85.4084FROQUET Aurélie37BEL5:28:065:28:167:18 8.231v1fHUY
86.4123DUMONT Caryl43BELCABW5:28:055:28:187:18 8.2227v1h7130
87.4031GUERLUS Christophe51FRA5:37:035:37:167:30 8.0121v2hRIVIERE
88.4133DEGLASSE David47BEL5:37:165:37:427:31 8.0028v1hSIRAULT
89.4138FVAN DONSELAAR Mart55NLD5:38:585:39:087:33 7.961v3fEDAM
90.4029PREUD’HOMME Cedric45FRA5:39:185:39:327:33 7.9529v1hST NICOLAS LES ARRAS
91.4105FROGIERS Kiwi46BEL5:40:265:40:367:35 7.934v2fWEZEMBEEK-OPPEM
92.4103LATRACHE Houmad63BELJOGGANS5:40:235:40:387:35 7.932v3hGANSHOREN
93.4090VAN DEN BLEEKEN Danny48BEL5:42:565:43:167:38 7.8730v1hWUUSTWEZEL
94.4027GUGLIELMO Bernard49ITA5:45:595:46:077:42 7.8031v1hBRUXELLES
95.4108DEBAVAY Jean-Christophe46BELPIPAIX5:55:075:55:187:54 7.6032v1hPIPAIX
96.4010GRUIELLE Yannick52BELBETRAIL5:55:075:55:197:54 7.6022v2hBRAIE L'ALLEUD
97.4085WOUTERS Wilbert56NLDBREDASE BERG BA5:55:265:55:477:55 7.5923v2hTILBURG
98.4030CARIDROIT Frederic51FRA5:55:545:56:077:55 7.5824v2hBEAUMETZ LES LOGES
99.4005MARZULLO Girolamo48ITA5:58:115:58:387:59 7.5333v1hNIVELLES
100.4112BAIWY Nicolas67BEL5:59:586:00:198:01 7.493v3hWOLUWE ST PIERRE
101.4077VAN DER PAS Rob56NLDBREDASE BERG BA6:01:366:01:568:03 7.4625v2hULVENHOUT
102.4132SPLINGARD François47BELFRANÇOIS SPLING6:01:356:01:588:03 7.4634v1hAUDERGHEM
103.4019FGALANT Anne47BELTORTUES MESLINO6:02:246:02:408:04 7.455v2fGAURAIN-RAMECROIX
104.4146FGASTRIN Jeannot59FRA6:06:136:06:298:09 7.372v3fANNNOEULLIN
105.4011NELSEN Ferdinand68BELAC BONHEIDEN6:09:426:10:038:14 7.304v3hBONHEIDEN
106.4083GEYSKENS Hans42BELAATT6:10:016:10:268:14 7.2935v1hSCHERPENHEUVEL
107.4145COUVREUR Christophe50BEL6:11:116:11:348:16 7.2726v2hSINT-PIETERS-KAPELLE
108.4091MEURIST Joel47BELTEMPLEUVE6:17:366:18:018:25 7.1436v1hJOLLAIN-MERLIN
109.4038DERUDDER Henk50BELPRESTO6:20:346:20:518:28 7.0927v2hICHTEGEM
110.4024CLAEYS Kristof39BEL6:20:376:20:538:28 7.0934sehGELUWE
111.4026FDESCHODT Samantha49BELKRISTOF CLAEYS6:20:396:20:578:28 7.096v2fGELUWE
112.4006VERLINDEN Jef66BEL6:29:536:30:158:41 6.925v3hGIERLE
113.4033BOVIN Patrick51BEL6:33:186:33:348:45 6.8628v2hSINT-TRUIDEN
114.4037FVRANKEN Erica45BEL6:33:216:33:398:45 6.867v2fKAPELLEN
DSQ2429FTHILS Joelle49BELv2fDWORP
DSQ4147FVAN DER VEEKEN Valerie51BELv2fANTWERPEN
DSQ4125QUARRE Michael43FRASANS3:52:173:52:22v1hFLINES LEZ MORTAGNE
DSQ4025CLAEYS Jean-Marie60BELKRISTOF CLAEYS5:19:495:19:49v3hGELUWE
DNF4073VAN CAMP Sébastien42BELv1hHENRIPONT
DNF: abandon; DSQ: disqualifié; Vitesse en km/h
Bladzijde: [1]